Time;durP1;ratioP1;P1;durP2;ratioP2;P2;SDS_P1;SDS_P2;PMS_P1;PMS_P2;Temp;Humidity;BMP_temperature;BMP_pressure;BME280_temperature;BME280_humidity;BME280_pressure;Samples;Min_cycle;Max_cycle;Signal;HPM_P1;HPM_P2
2024/01/14 00:01:23;;;;;;;39.90;18.60;;;;;;;-16.17;100.00;138377.72;106996;1273;25340;-53
2024/01/14 00:04:09;;;;;;;40.20;19.00;;;;;;;-16.14;100.00;138383.58;107094;1260;25344;-54
2024/01/14 00:06:54;;;;;;;47.70;21.30;;;;;;;-16.08;100.00;138399.47;107034;1264;25363;-53
2024/01/14 00:09:41;;;;;;;38.80;19.20;;;;;;;-16.04;100.00;138410.23;107088;1264;25335;-55
2024/01/14 00:12:26;;;;;;;44.10;21.80;;;;;;;-15.97;100.00;138424.94;107089;1264;23288;-54
2024/01/14 00:15:12;;;;;;;42.70;19.50;;;;;;;-15.90;100.00;138442.55;107082;1264;25381;-54
2024/01/14 00:17:58;;;;;;;43.90;20.60;;;;;;;-15.92;100.00;138436.44;107094;1260;25387;-54
2024/01/14 00:20:43;;;;;;;43.60;20.30;;;;;;;-15.99;100.00;138420.53;107249;1265;25322;-55
2024/01/14 00:23:29;;;;;;;47.10;19.90;;;;;;;-16.02;100.00;138414.89;107148;1267;25408;-54
2024/01/14 00:26:14;;;;;;;40.40;19.20;;;;;;;-16.02;100.00;138412.95;107077;1273;25373;-55
2024/01/14 00:29:01;;;;;;;47.10;20.50;;;;;;;-16.08;100.00;138398.75;107095;1267;25335;-56
2024/01/14 00:31:47;;;;;;;38.40;19.40;;;;;;;-16.11;100.00;138392.63;107113;1260;26492;-54
2024/01/14 00:34:33;;;;;;;43.80;20.40;;;;;;;-16.10;100.00;138393.84;107109;1268;25405;-57
2024/01/14 00:37:19;;;;;;;44.10;18.70;;;;;;;-16.10;100.00;138393.34;107104;1273;25538;-55
2024/01/14 00:40:07;;;;;;;44.50;20.50;;;;;;;-16.12;100.00;138390.17;107134;1264;25405;-55
2024/01/14 00:42:52;;;;;;;37.50;18.20;;;;;;;-16.07;100.00;138401.20;107049;1263;25487;-53
2024/01/14 00:45:37;;;;;;;40.60;18.80;;;;;;;-16.04;100.00;138408.06;107068;1264;25343;-57
2024/01/14 00:48:23;;;;;;;40.40;19.00;;;;;;;-16.05;100.00;138406.59;107204;1267;25419;-54
2024/01/14 00:51:09;;;;;;;39.40;18.80;;;;;;;-16.06;100.00;138403.16;107124;1264;22512;-54
2024/01/14 00:53:55;;;;;;;34.70;16.80;;;;;;;-16.07;100.00;138402.92;107055;1264;25347;-57
2024/01/14 00:56:41;;;;;;;38.50;18.80;;;;;;;-16.02;100.00;138413.19;107027;1275;25474;-56
2024/01/14 00:59:27;;;;;;;42.70;19.10;;;;;;;-16.02;100.00;138415.41;107064;1267;23234;-56
2024/01/14 01:02:13;;;;;;;35.90;17.00;;;;;;;-16.02;100.00;138413.67;107095;1253;25486;-54
2024/01/14 01:04:58;;;;;;;37.70;18.00;;;;;;;-16.00;100.00;138419.06;107018;1260;25362;-55
2024/01/14 01:07:44;;;;;;;40.80;19.00;;;;;;;-15.89;100.00;138443.03;107113;1257;25392;-55
2024/01/14 01:10:29;;;;;;;34.00;17.90;;;;;;;-15.71;100.00;138486.84;106948;1268;25326;-54
2024/01/14 01:13:15;;;;;;;38.60;19.10;;;;;;;-15.63;100.00;138507.63;106979;1266;25421;-54
2024/01/14 01:16:01;;;;;;;35.40;16.80;;;;;;;-15.59;100.00;138516.94;107013;1267;25334;-54
2024/01/14 01:18:47;;;;;;;41.10;19.10;;;;;;;-15.53;100.00;138531.64;106947;1267;26609;-54
2024/01/14 01:21:32;;;;;;;40.90;17.20;;;;;;;-15.43;100.00;138555.38;106929;1263;25446;-54
2024/01/14 01:24:18;;;;;;;39.10;16.60;;;;;;;-15.37;100.00;138568.34;107151;1264;25491;-53
2024/01/14 01:27:04;;;;;;;40.00;18.60;;;;;;;-15.25;100.00;138597.52;107115;1264;25363;-54
2024/01/14 01:29:50;;;;;;;35.60;16.90;;;;;;;-15.21;100.00;138606.33;107095;1264;25334;-55
2024/01/14 01:32:35;;;;;;;36.80;17.20;;;;;;;-15.18;100.00;138613.66;107106;1265;25348;-56
2024/01/14 01:35:21;;;;;;;32.10;16.10;;;;;;;-15.21;100.00;138608.77;107043;1267;25411;-53
2024/01/14 01:38:07;;;;;;;31.90;16.10;;;;;;;-15.18;100.00;138615.63;107123;1273;26099;-56
2024/01/14 01:40:53;;;;;;;37.30;17.90;;;;;;;-15.09;100.00;138636.45;107113;1266;25341;-55
2024/01/14 01:43:38;;;;;;;34.40;18.00;;;;;;;-15.06;100.00;138642.80;107084;1262;25411;-55
2024/01/14 01:46:24;;;;;;;35.80;17.30;;;;;;;-15.07;100.00;138641.09;107030;1263;25382;-56
2024/01/14 01:49:10;;;;;;;29.70;16.90;;;;;;;-14.99;100.00;138660.45;107082;1266;25248;-53
2024/01/14 01:51:59;;;;;;;38.20;18.00;;;;;;;-14.90;100.00;138681.28;107072;1266;24346;-54
2024/01/14 01:54:47;;;;;;;41.50;16.80;;;;;;;-14.85;100.00;138694.27;107053;1260;25461;-52
2024/01/14 01:57:33;;;;;;;35.20;18.30;;;;;;;-14.76;100.00;138716.33;107097;1264;25334;-55
2024/01/14 02:00:19;;;;;;;37.60;18.40;;;;;;;-14.69;100.00;138732.98;107126;1265;24221;-55
2024/01/14 02:03:05;;;;;;;40.10;18.20;;;;;;;-14.65;100.00;138741.55;106872;1265;25402;-55
2024/01/14 02:05:54;;;;;;;35.00;17.70;;;;;;;-14.59;100.00;138755.53;107111;1261;25415;-54
2024/01/14 02:08:40;;;;;;;38.00;19.90;;;;;;;-14.58;100.00;138758.47;107054;1266;25356;-55
2024/01/14 02:11:26;;;;;;;39.50;18.60;;;;;;;-14.59;100.00;138755.55;107101;1272;25420;-54
2024/01/14 02:14:11;;;;;;;38.80;19.60;;;;;;;-14.54;100.00;138766.55;107096;1264;25353;-56
2024/01/14 02:16:57;;;;;;;33.50;18.20;;;;;;;-14.54;100.00;138767.30;107046;1266;25341;-54
2024/01/14 02:19:43;;;;;;;40.20;20.40;;;;;;;-14.56;100.00;138762.64;107171;1267;25440;-55
2024/01/14 02:22:32;;;;;;;39.00;20.50;;;;;;;-14.53;100.00;138771.20;107135;1267;22601;-56
2024/01/14 02:25:18;;;;;;;35.20;19.00;;;;;;;-14.44;100.00;138792.00;107014;1266;25802;-54
2024/01/14 02:28:04;;;;;;;41.80;22.50;;;;;;;-14.43;100.00;138793.00;106997;1268;24353;-55
2024/01/14 02:30:50;;;;;;;44.00;21.00;;;;;;;-14.42;100.00;138797.41;106894;1266;25401;-53
2024/01/14 02:33:36;;;;;;;45.50;21.10;;;;;;;-14.38;100.00;138806.72;106960;1267;25375;-55
2024/01/14 02:36:21;;;;;;;46.60;23.00;;;;;;;-14.33;100.00;138817.98;106928;1269;25347;-54
2024/01/14 02:39:07;;;;;;;46.90;21.30;;;;;;;-14.30;100.00;138826.55;107025;1267;25375;-54
2024/01/14 02:41:53;;;;;;;44.20;22.70;;;;;;;-14.27;100.00;138832.47;107092;1267;25335;-54
2024/01/14 02:44:38;;;;;;;37.60;18.90;;;;;;;-14.24;100.00;138840.80;107253;1263;25334;-54
2024/01/14 02:47:24;;;;;;;49.60;21.80;;;;;;;-14.27;100.00;138833.44;106859;1267;25484;-56
2024/01/14 02:50:10;;;;;;;45.40;20.80;;;;;;;-14.37;100.00;138806.97;107020;1263;25411;-57
2024/01/14 02:52:55;;;;;;;38.80;20.90;;;;;;;-14.48;100.00;138783.20;106997;1264;25406;-56
2024/01/14 02:55:40;;;;;;;39.30;20.20;;;;;;;-14.48;100.00;138780.72;107041;1267;25385;-57
2024/01/14 02:58:26;;;;;;;34.30;18.30;;;;;;;-14.52;100.00;138770.95;107139;1263;25424;-54
2024/01/14 03:01:12;;;;;;;44.30;21.50;;;;;;;-14.54;100.00;138766.81;107074;1267;25396;-55
2024/01/14 03:03:57;;;;;;;43.20;20.90;;;;;;;-14.51;100.00;138774.84;107050;1260;25354;-54
2024/01/14 03:06:43;;;;;;;39.00;19.90;;;;;;;-14.52;100.00;138773.14;107122;1260;25353;-57
2024/01/14 03:09:29;;;;;;;44.70;20.10;;;;;;;-14.55;100.00;138766.31;107061;1266;25487;-54
2024/01/14 03:12:15;;;;;;;36.30;19.60;;;;;;;-14.55;100.00;138765.58;107039;1273;25521;-56
2024/01/14 03:15:00;;;;;;;41.70;20.10;;;;;;;-14.57;100.00;138761.66;107209;1267;25334;-55
2024/01/14 03:17:46;;;;;;;43.10;21.60;;;;;;;-14.55;100.00;138764.09;107059;1267;25335;-58
2024/01/14 03:20:32;;;;;;;40.90;20.80;;;;;;;-14.53;100.00;138769.48;107055;1265;25494;-54
2024/01/14 03:23:18;;;;;;;35.60;15.90;;;;;;;-14.53;100.00;138769.22;107191;1260;24288;-56
2024/01/14 03:26:04;;;;;;;39.90;20.00;;;;;;;-14.49;100.00;138779.03;107197;1264;25411;-57
2024/01/14 03:28:49;;;;;;;38.90;21.10;;;;;;;-14.45;100.00;138789.80;107159;1266;25382;-56
2024/01/14 03:31:35;;;;;;;39.60;20.00;;;;;;;-14.35;100.00;138813.59;107169;1260;22569;-53
2024/01/14 03:34:20;;;;;;;33.80;19.50;;;;;;;-14.30;100.00;138826.08;107103;1264;25347;-55
2024/01/14 03:37:07;;;;;;;42.40;21.50;;;;;;;-14.29;100.00;138827.55;107093;1266;25525;-56
2024/01/14 03:39:53;;;;;;;37.70;19.70;;;;;;;-14.25;100.00;138837.84;107015;1266;25347;-57
2024/01/14 03:42:38;;;;;;;38.60;20.50;;;;;;;-14.22;100.00;138845.20;106994;1266;25320;-54
2024/01/14 03:45:23;;;;;;;42.30;20.30;;;;;;;-14.16;100.00;138858.20;106981;1266;25375;-56
2024/01/14 03:48:09;;;;;;;43.30;17.50;;;;;;;-14.05;100.00;138885.91;107155;1266;25425;-54
2024/01/14 03:50:54;;;;;;;39.90;21.90;;;;;;;-13.99;100.00;138898.91;107105;1256;25366;-56
2024/01/14 03:53:40;;;;;;;37.00;19.50;;;;;;;-13.95;100.00;138909.22;107091;1261;25423;-54
2024/01/14 03:56:26;;;;;;;42.60;21.10;;;;;;;-13.92;100.00;138917.31;107054;1263;25375;-54
2024/01/14 03:59:11;;;;;;;37.80;21.10;;;;;;;-13.84;100.00;138934.72;107042;1264;25372;-57
2024/01/14 04:01:56;;;;;;;42.40;21.90;;;;;;;-13.80;100.00;138946.48;107106;1266;25395;-54
2024/01/14 04:04:42;;;;;;;39.90;19.60;;;;;;;-13.78;100.00;138950.17;107040;1260;25369;-53
2024/01/14 04:07:27;;;;;;;39.00;20.80;;;;;;;-13.81;100.00;138942.33;107034;1260;25424;-54
2024/01/14 04:10:13;;;;;;;34.80;18.20;;;;;;;-13.81;100.00;138943.06;107120;1263;25433;-54
2024/01/14 04:12:59;;;;;;;38.10;20.70;;;;;;;-13.81;100.00;138942.08;107061;1259;25338;-58
2024/01/14 04:15:44;;;;;;;39.70;21.60;;;;;;;-13.80;100.00;138945.77;107113;1260;25488;-58
2024/01/14 04:18:30;;;;;;;34.00;18.70;;;;;;;-13.78;100.00;138951.41;107081;1263;25536;-53
2024/01/14 04:21:23;;;;;;;37.20;19.60;;;;;;;-13.70;100.00;138969.33;107166;1267;25421;-55
2024/01/14 04:24:09;;;;;;;32.00;17.40;;;;;;;-13.64;100.00;138983.53;107154;1259;22666;-55
2024/01/14 04:26:55;;;;;;;38.50;20.80;;;;;;;-13.65;100.00;138981.09;107046;1259;25415;-57
2024/01/14 04:29:41;;;;;;;39.90;20.70;;;;;;;-13.70;100.00;138969.31;107094;1260;25425;-55
2024/01/14 04:32:26;;;;;;;34.10;18.50;;;;;;;-13.71;100.00;138966.38;107088;1261;25365;-58
2024/01/14 04:35:12;;;;;;;34.40;19.90;;;;;;;-13.69;100.00;138970.28;107114;1260;22739;-56
2024/01/14 04:37:58;;;;;;;35.80;20.00;;;;;;;-13.64;100.00;138984.03;107089;1264;25402;-55
2024/01/14 04:40:46;;;;;;;38.70;20.70;;;;;;;-13.61;100.00;138991.88;107101;1262;25337;-55
2024/01/14 04:43:31;;;;;;;31.80;17.90;;;;;;;-13.48;100.00;139020.84;107056;1263;25347;-55
2024/01/14 04:46:16;;;;;;;37.20;18.20;;;;;;;-13.43;100.00;139034.83;107134;1266;23085;-54
2024/01/14 04:49:02;;;;;;;39.20;20.00;;;;;;;-13.38;100.00;139045.36;107175;1259;25361;-57
2024/01/14 04:51:48;;;;;;;33.10;17.90;;;;;;;-13.33;100.00;139058.14;107212;1266;25385;-55
2024/01/14 04:54:34;;;;;;;33.80;18.60;;;;;;;-13.36;100.00;139050.52;107129;1266;25337;-53
2024/01/14 04:57:19;;;;;;;37.70;19.50;;;;;;;-13.37;100.00;139047.84;107220;1263;25459;-55
2024/01/14 05:00:09;;;;;;;37.60;20.00;;;;;;;-13.41;100.00;139038.75;107078;1263;25526;-55
2024/01/14 05:02:55;;;;;;;33.70;18.70;;;;;;;-13.34;100.00;139055.42;107053;1266;25356;-54
2024/01/14 05:05:40;;;;;;;32.20;18.10;;;;;;;-13.31;100.00;139061.55;107112;1266;23899;-57
2024/01/14 05:08:25;;;;;;;37.70;18.80;;;;;;;-13.28;100.00;139067.95;107106;1264;25424;-58
2024/01/14 05:11:11;;;;;;;38.10;19.90;;;;;;;-13.19;100.00;139091.47;107129;1263;25366;-56
2024/01/14 05:13:56;;;;;;;37.70;19.70;;;;;;;-13.06;100.00;139121.19;107067;1257;25424;-57
2024/01/14 05:16:42;;;;;;;38.30;20.00;;;;;;;-12.98;100.00;139142.78;106880;1266;25412;-57
2024/01/14 05:19:27;;;;;;;38.60;21.60;;;;;;;-12.83;100.00;139176.66;107033;1266;25397;-58
2024/01/14 05:22:13;;;;;;;43.70;22.20;;;;;;;-12.72;100.00;139205.14;107138;1254;25294;-57
2024/01/14 05:24:58;;;;;;;39.80;20.80;;;;;;;-12.66;100.00;139218.41;107143;1264;25456;-55
2024/01/14 05:27:43;;;;;;;39.40;22.80;;;;;;;-12.61;100.00;139231.17;107093;1260;25379;-58
2024/01/14 05:30:29;;;;;;;43.50;24.70;;;;;;;-12.57;100.00;139240.97;107120;1266;22633;-58
2024/01/14 05:33:15;;;;;;;39.00;22.90;;;;;;;-12.52;100.00;139253.28;107081;1266;98058;-58
2024/01/14 05:36:01;;;;;;;41.40;22.50;;;;;;;-12.46;100.00;139266.75;107112;1263;25355;-56
2024/01/14 05:38:47;;;;;;;46.30;24.30;;;;;;;-12.41;100.00;139278.33;107028;1256;25497;-54
2024/01/14 05:41:32;;;;;;;47.00;23.60;;;;;;;-12.33;100.00;139297.72;107071;1266;25347;-55
2024/01/14 05:44:17;;;;;;;36.80;22.50;;;;;;;-12.33;100.00;139296.50;107134;1266;25344;-56
2024/01/14 05:47:03;;;;;;;44.30;22.20;;;;;;;-12.30;100.00;139304.36;107035;1266;24347;-58
2024/01/14 05:49:49;;;;;;;47.60;24.00;;;;;;;-12.24;100.00;139319.11;107143;1266;25427;-54
2024/01/14 05:52:35;;;;;;;42.30;23.60;;;;;;;-12.16;100.00;139338.28;107117;1266;25327;-55
2024/01/14 05:55:20;;;;;;;41.80;22.10;;;;;;;-12.13;100.00;139346.63;106843;1265;25410;-56
2024/01/14 05:58:06;;;;;;;39.70;21.90;;;;;;;-12.13;100.00;139344.91;107007;1266;25418;-59
2024/01/14 06:00:51;;;;;;;37.60;21.90;;;;;;;-12.18;100.00;139334.59;106995;1266;25498;-57
2024/01/14 06:03:37;;;;;;;43.80;23.70;;;;;;;-12.11;100.00;139350.08;107065;1266;25409;-55
2024/01/14 06:06:23;;;;;;;42.60;22.60;;;;;;;-12.01;100.00;139374.88;106966;1254;25337;-56
2024/01/14 06:09:09;;;;;;;44.40;24.30;;;;;;;-11.89;100.00;139402.64;106908;1256;25525;-56
2024/01/14 06:11:55;;;;;;;49.10;26.30;;;;;;;-11.79;100.00;139426.44;107108;1266;25497;-57
2024/01/14 06:14:41;;;;;;;43.40;23.80;;;;;;;-11.72;100.00;139445.38;107103;1264;25507;-58
2024/01/14 06:17:26;;;;;;;46.90;26.00;;;;;;;-11.67;100.00;139456.92;107097;1263;25334;-54
2024/01/14 06:20:12;;;;;;;42.60;23.80;;;;;;;-11.57;100.00;139479.78;107167;1266;25340;-59
2024/01/14 06:22:57;;;;;;;36.50;20.10;;;;;;;-11.47;100.00;139504.38;107177;1263;25425;-56
2024/01/14 06:25:43;;;;;;;39.40;21.10;;;;;;;-11.37;100.00;139528.47;107182;1264;22523;-57
2024/01/14 06:28:29;;;;;;;38.60;21.70;;;;;;;-11.30;100.00;139544.97;107025;1260;25875;-58
2024/01/14 06:31:14;;;;;;;38.10;20.80;;;;;;;-11.25;100.00;139558.00;107051;1264;25522;-59
2024/01/14 06:34:00;;;;;;;37.40;19.20;;;;;;;-11.20;100.00;139569.58;107063;1266;25376;-60
2024/01/14 06:36:45;;;;;;;33.20;17.20;;;;;;;-11.14;100.00;139583.08;107028;1263;25337;-55
2024/01/14 06:39:31;;;;;;;32.80;18.40;;;;;;;-11.07;100.00;139600.05;107117;1266;25414;-56
2024/01/14 06:42:17;;;;;;;31.00;17.80;;;;;;;-11.02;100.00;139612.59;107199;1267;23688;-54
2024/01/14 06:45:04;;;;;;;33.70;18.80;;;;;;;-10.97;100.00;139623.91;107141;1264;25449;-54
2024/01/14 06:47:50;;;;;;;35.70;18.90;;;;;;;-10.95;100.00;139629.31;107119;1263;25360;-55
2024/01/14 06:50:35;;;;;;;34.20;19.60;;;;;;;-10.92;100.00;139635.97;107038;1262;25449;-59
2024/01/14 06:53:21;;;;;;;37.20;21.00;;;;;;;-10.86;100.00;139649.50;107091;1266;25456;-56
2024/01/14 06:56:08;;;;;;;32.60;19.30;;;;;;;-10.80;100.00;139666.45;107120;1264;25363;-54
2024/01/14 06:58:54;;;;;;;35.40;21.10;;;;;;;-10.71;100.00;139687.38;107118;1262;25430;-60
2024/01/14 07:01:39;;;;;;;34.40;21.60;;;;;;;-10.65;100.00;139701.16;107110;1260;25424;-58
2024/01/14 07:04:25;;;;;;;32.70;18.80;;;;;;;-10.61;100.00;139710.00;107117;1263;25375;-56
2024/01/14 07:07:11;;;;;;;36.00;20.10;;;;;;;-10.58;100.00;139718.16;107019;1264;25373;-58
2024/01/14 07:09:57;;;;;;;35.80;19.70;;;;;;;-10.56;100.00;139721.58;107081;1266;23545;-60
2024/01/14 07:12:42;;;;;;;31.30;19.00;;;;;;;-10.52;100.00;139733.66;107050;1266;25487;-56
2024/01/14 07:15:28;;;;;;;31.60;17.80;;;;;;;-10.43;100.00;139754.58;107000;1264;25428;-56
2024/01/14 07:18:13;;;;;;;36.00;19.70;;;;;;;-10.36;100.00;139771.80;107056;1263;25363;-59
2024/01/14 07:21:01;;;;;;;36.80;20.00;;;;;;;-10.28;100.00;139790.47;107002;1265;26595;-56
2024/01/14 07:23:47;;;;;;;35.00;19.60;;;;;;;-10.24;100.00;139798.83;107118;1263;25403;-56
2024/01/14 07:26:32;;;;;;;31.30;18.50;;;;;;;-10.21;100.00;139805.95;107100;1266;25405;-56
2024/01/14 07:29:18;;;;;;;29.80;17.70;;;;;;;-10.19;100.00;139811.64;107098;1263;25369;-59
2024/01/14 07:32:04;;;;;;;32.10;16.90;;;;;;;-10.14;100.00;139825.16;107121;1266;25382;-57
2024/01/14 07:34:51;;;;;;;33.20;18.70;;;;;;;-10.07;100.00;139841.42;107172;1263;25366;-53
2024/01/14 07:37:37;;;;;;;29.50;18.10;;;;;;;-10.04;100.00;139848.56;107194;1266;25418;-57
2024/01/14 07:40:22;;;;;;;29.90;16.60;;;;;;;-10.07;100.00;139841.91;107197;1266;24226;-57
2024/01/14 07:43:08;;;;;;;28.70;16.60;;;;;;;-10.10;100.00;139833.78;107118;1253;25345;-56
2024/01/14 07:45:54;;;;;;;30.30;16.50;;;;;;;-10.08;100.00;139838.72;106967;1266;25425;-56
2024/01/14 07:48:42;;;;;;;31.20;15.50;;;;;;;-10.02;100.00;139851.50;107003;1266;25427;-56
2024/01/14 07:51:27;;;;;;;26.80;16.40;;;;;;;-9.96;100.00;139867.03;107015;1266;22940;-59
2024/01/14 07:54:13;;;;;;;26.60;14.40;;;;;;;-9.93;100.00;139875.91;107017;1266;23885;-55
2024/01/14 07:56:58;;;;;;;28.50;16.80;;;;;;;-9.91;100.00;139879.84;106969;1274;25347;-56
2024/01/14 07:59:44;;;;;;;29.20;15.00;;;;;;;-9.91;100.00;139880.06;106973;1266;25518;-60
2024/01/14 08:02:30;;;;;;;24.90;14.40;;;;;;;-9.89;100.00;139885.00;107110;1264;25531;-59
2024/01/14 08:05:15;;;;;;;29.60;14.90;;;;;;;-9.81;100.00;139902.97;107047;1266;25440;-56
2024/01/14 08:08:03;;;;;;;25.90;14.80;;;;;;;-9.72;100.00;139924.16;106998;1263;25376;-57
2024/01/14 08:10:49;;;;;;;25.00;14.30;;;;;;;-9.64;100.00;139944.11;107046;1263;25376;-55
2024/01/14 08:13:34;;;;;;;26.50;14.30;;;;;;;-9.51;100.00;139976.16;107007;1272;25382;-57
2024/01/14 08:16:20;;;;;;;26.80;15.10;;;;;;;-9.43;100.00;139996.11;107040;1266;25421;-57
2024/01/14 08:19:06;;;;;;;27.60;14.90;;;;;;;-9.37;100.00;140009.66;107030;1266;25359;-57
2024/01/14 08:21:52;;;;;;;26.50;14.70;;;;;;;-9.35;100.00;140014.09;107038;1261;25369;-59
2024/01/14 08:24:41;;;;;;;31.80;16.70;;;;;;;-9.35;100.00;140012.86;106970;1266;25344;-58
2024/01/14 08:27:26;;;;;;;27.10;14.20;;;;;;;-9.33;100.00;140018.03;107005;1266;25462;-57
2024/01/14 08:30:14;;;;;;;26.60;14.00;;;;;;;-9.29;100.00;140028.13;107115;1264;25403;-57
2024/01/14 08:33:03;;;;;;;24.80;13.20;;;;;;;-9.29;100.00;140026.66;107136;1266;25449;-56
2024/01/14 08:35:49;;;;;;;25.10;13.80;;;;;;;-9.34;100.00;140015.08;107147;1263;25497;-57
2024/01/14 08:38:35;;;;;;;21.50;11.90;;;;;;;-9.34;100.00;140015.08;107114;1266;25363;-58
2024/01/14 08:41:24;;;;;;;19.70;11.40;;;;;;;-9.36;100.00;140011.88;107153;1263;25366;-60
2024/01/14 08:44:10;;;;;;;24.10;13.10;;;;;;;-9.33;100.00;140017.53;107214;1266;23498;-56
2024/01/14 08:46:56;;;;;;;20.40;12.30;;;;;;;-9.29;100.00;140027.88;107169;1263;25347;-57
2024/01/14 08:49:42;;;;;;;22.10;12.80;;;;;;;-9.28;100.00;140029.63;107164;1266;22510;-59
2024/01/14 08:52:29;;;;;;;21.60;11.80;;;;;;;-9.31;100.00;140022.95;107298;1256;23893;-56
2024/01/14 08:55:14;;;;;;;26.90;13.30;;;;;;;-9.35;100.00;140014.09;107331;1263;25574;-54
2024/01/14 08:58:00;;;;;;;23.60;12.40;;;;;;;-9.37;100.00;140007.92;107453;1260;25427;-60
2024/01/14 09:00:45;;;;;;;22.40;12.00;;;;;;;-9.42;100.00;139996.34;107418;1262;25374;-61
2024/01/14 09:03:31;;;;;;;24.70;12.90;;;;;;;-9.43;100.00;139995.13;107425;1261;25958;-60
2024/01/14 09:06:17;;;;;;;22.00;12.40;;;;;;;-9.40;100.00;140001.52;107552;1266;25420;-53
2024/01/14 09:09:03;;;;;;;22.70;13.50;;;;;;;-9.40;100.00;140003.25;107430;1256;22519;-55
2024/01/14 09:11:49;;;;;;;25.30;12.90;;;;;;;-9.41;100.00;140000.78;107434;1275;25484;-55
2024/01/14 09:14:34;;;;;;;25.20;14.50;;;;;;;-9.39;100.00;140004.22;107496;1263;23892;-58
2024/01/14 09:17:20;;;;;;;25.30;14.00;;;;;;;-9.38;100.00;140005.95;107407;1263;25398;-54
2024/01/14 09:20:06;;;;;;;24.00;12.40;;;;;;;-9.40;100.00;140003.00;107183;1267;25462;-57
2024/01/14 09:22:52;;;;;;;23.80;13.30;;;;;;;-9.38;100.00;140006.22;107113;1256;25424;-55
2024/01/14 09:25:38;;;;;;;27.90;14.60;;;;;;;-9.34;100.00;140016.06;107494;1263;25977;-55
2024/01/14 09:28:26;;;;;;;23.60;12.50;;;;;;;-9.32;100.00;140021.48;107138;1254;25344;-60
2024/01/14 09:31:12;;;;;;;26.30;13.10;;;;;;;-9.29;100.00;140027.38;107259;1259;22513;-57
2024/01/14 09:33:58;;;;;;;24.20;14.60;;;;;;;-9.26;100.00;140036.50;107202;1254;25366;-66
2024/01/14 09:36:43;;;;;;;22.40;12.10;;;;;;;-9.27;100.00;140034.30;107171;1270;25338;-59
2024/01/14 09:39:29;;;;;;;23.10;12.20;;;;;;;-9.28;100.00;140030.86;107053;1266;24059;-58
2024/01/14 09:42:34;;;;;;;23.60;13.30;;;;;;;-9.24;100.00;140040.45;107139;1269;22536;-55
2024/01/14 09:45:21;;;;;;;25.90;12.80;;;;;;;-9.18;100.00;140055.00;107034;1266;25424;-57
2024/01/14 09:48:18;;;;;;;21.50;12.00;;;;;;;-9.12;100.00;140070.28;106983;1266;25442;-59
2024/01/14 09:51:08;;;;;;;21.20;13.10;;;;;;;-9.08;100.00;140078.66;107130;1267;25376;-58
2024/01/14 09:53:57;;;;;;;25.30;12.80;;;;;;;-9.06;100.00;140084.09;107515;1264;22778;-58
2024/01/14 09:56:46;;;;;;;23.20;12.50;;;;;;;-9.03;100.00;140089.98;107454;1266;25873;-55
2024/01/14 09:59:34;;;;;;;22.40;11.20;;;;;;;-9.01;100.00;140096.14;107021;1275;25484;-57
2024/01/14 10:02:21;;;;;;;21.70;11.70;;;;;;;-9.00;100.00;140098.38;107026;1266;25450;-59
2024/01/14 10:05:08;;;;;;;17.50;10.30;;;;;;;-8.97;100.00;140106.25;107003;1266;25388;-56
2024/01/14 10:07:53;;;;;;;19.00;10.60;;;;;;;-8.92;100.00;140115.63;107020;1266;25372;-60
2024/01/14 10:10:40;;;;;;;19.70;10.10;;;;;;;-8.90;100.00;140122.28;107042;1275;25375;-56
2024/01/14 10:13:26;;;;;;;17.30;10.00;;;;;;;-8.91;100.00;140119.31;106833;1259;25328;-56
2024/01/14 10:16:12;;;;;;;18.50;10.30;;;;;;;-8.91;100.00;140120.05;107044;1256;25417;-55
2024/01/14 10:19:17;;;;;;;20.80;10.80;;;;;;;-8.86;100.00;140132.38;106972;1266;25407;-60
2024/01/14 10:22:04;;;;;;;19.90;9.90;;;;;;;-8.80;100.00;140146.67;106985;1263;25381;-59
2024/01/14 10:25:03;;;;;;;19.30;10.20;;;;;;;-8.75;100.00;140158.03;106961;1265;25433;-58
2024/01/14 10:27:48;;;;;;;23.10;12.30;;;;;;;-8.68;100.00;140176.03;106962;1265;25497;-57
2024/01/14 10:30:34;;;;;;;18.70;9.80;;;;;;;-8.53;100.00;140210.30;106970;1263;25366;-60
2024/01/14 10:33:21;;;;;;;17.50;10.40;;;;;;;-8.36;100.00;140253.41;106960;1266;25401;-58
2024/01/14 10:36:09;;;;;;;20.30;10.60;;;;;;;-8.29;100.00;140268.70;107148;1257;23321;-60
2024/01/14 10:39:02;;;;;;;17.50;10.20;;;;;;;-8.28;100.00;140270.67;107100;1256;22519;-59
2024/01/14 10:41:47;;;;;;;16.80;9.90;;;;;;;-8.30;100.00;140266.97;107114;1256;25376;-61
2024/01/14 10:44:33;;;;;;;16.50;9.30;;;;;;;-8.37;100.00;140250.22;107172;1258;25872;-58
2024/01/14 10:47:21;;;;;;;15.60;8.90;;;;;;;-8.51;100.00;140215.72;107121;1267;25447;-57
2024/01/14 10:50:09;;;;;;;16.70;9.40;;;;;;;-8.62;100.00;140190.09;107057;1266;23878;-57
2024/01/14 10:52:59;;;;;;;14.60;7.90;;;;;;;-8.72;100.00;140166.42;107136;1270;24455;-56
2024/01/14 10:55:56;;;;;;;14.90;8.40;;;;;;;-8.75;100.00;140158.28;107163;1265;25347;-58
2024/01/14 10:58:42;;;;;;;15.00;8.70;;;;;;;-8.78;100.00;140151.36;107107;1266;25406;-57
2024/01/14 11:01:31;;;;;;;14.00;8.30;;;;;;;-8.82;100.00;140142.00;107214;1254;25343;-59
2024/01/14 11:04:18;;;;;;;16.70;9.40;;;;;;;-8.82;100.00;140141.25;107265;1269;25357;-59
2024/01/14 11:07:05;;;;;;;14.80;8.10;;;;;;;-8.85;100.00;140134.59;107094;1269;25348;-58
2024/01/14 11:09:55;;;;;;;14.80;8.60;;;;;;;-8.87;100.00;140128.94;107103;1256;25385;-59
2024/01/14 11:13:15;;;;;;;13.80;8.20;;;;;;;-8.87;100.00;140129.91;107079;1253;22611;-63
2024/01/14 11:16:18;;;;;;;16.50;8.40;;;;;;;-8.87;100.00;140127.72;107139;1257;25415;-62
2024/01/14 11:19:08;;;;;;;16.50;9.20;;;;;;;-8.86;100.00;140130.66;107227;1267;25418;-59
2024/01/14 11:22:20;;;;;;;16.70;10.30;;;;;;;-8.89;100.00;140124.25;107276;1263;25446;-59
2024/01/14 11:25:33;;;;;;;21.50;12.30;;;;;;;-8.87;100.00;140129.69;107061;1259;25494;-60
2024/01/14 11:28:20;;;;;;;21.80;12.40;;;;;;;-8.87;100.00;140129.67;107056;1266;25363;-60
2024/01/14 11:31:06;;;;;;;19.70;11.90;;;;;;;-8.88;100.00;140127.22;106977;1266;25436;-61
2024/01/14 11:33:52;;;;;;;22.50;12.40;;;;;;;-8.88;100.00;140125.97;107049;1274;25465;-58
2024/01/14 11:36:55;;;;;;;21.30;12.90;;;;;;;-8.85;100.00;140133.38;106985;1266;25369;-60
2024/01/14 11:39:41;;;;;;;27.90;15.50;;;;;;;-8.84;100.00;140135.59;106996;1259;25348;-57
2024/01/14 11:42:28;;;;;;;27.80;14.60;;;;;;;-8.83;100.00;140137.55;106962;1259;25348;-58
2024/01/14 11:45:32;;;;;;;31.90;16.10;;;;;;;-8.88;100.00;140127.72;106949;1276;25532;-61
2024/01/14 11:48:17;;;;;;;25.80;14.60;;;;;;;-8.94;100.00;140112.91;106987;1275;25418;-61
2024/01/14 11:51:06;;;;;;;30.90;15.20;;;;;;;-9.05;100.00;140085.31;107020;1257;25424;-60
2024/01/14 11:53:51;;;;;;;30.50;14.90;;;;;;;-9.07;100.00;140081.38;106970;1256;25401;-61
2024/01/14 11:56:41;;;;;;;26.70;15.00;;;;;;;-9.08;100.00;140078.91;107014;1256;25490;-63
2024/01/14 11:59:27;;;;;;;24.50;13.20;;;;;;;-9.08;100.00;140079.41;107004;1263;25382;-60
2024/01/14 12:02:27;;;;;;;24.70;13.20;;;;;;;-9.12;100.00;140068.05;107012;1257;25347;-59
2024/01/14 12:05:18;;;;;;;27.20;14.40;;;;;;;-9.25;100.00;140038.23;107093;1259;25372;-58
2024/01/14 12:08:04;;;;;;;26.60;14.10;;;;;;;-9.28;100.00;140031.09;107013;1256;25363;-62
2024/01/14 12:10:50;;;;;;;28.10;14.00;;;;;;;-9.26;100.00;140036.02;107091;1272;23814;-61
2024/01/14 12:13:35;;;;;;;26.40;14.70;;;;;;;-9.22;100.00;140045.63;107072;1266;25415;-57
2024/01/14 12:16:21;;;;;;;24.50;13.30;;;;;;;-9.22;100.00;140044.16;107038;1256;25380;-61